createdAt,value
2022-11-03T00:00:05.680Z,100329.44
2022-11-03T00:02:58.537Z,100321.81
2022-11-03T00:06:12.949Z,100311.94
2022-11-03T00:09:10.422Z,100311.31
2022-11-03T00:12:01.315Z,100306.63
2022-11-03T00:14:49.848Z,100307.47
2022-11-03T00:17:38.349Z,100300.66
2022-11-03T00:20:26.972Z,100305.13
2022-11-03T00:23:17.690Z,100307.34
2022-11-03T00:26:36.698Z,100299.75
2022-11-03T00:29:27.380Z,100286.50
2022-11-03T00:32:17.918Z,100288.53
2022-11-03T00:35:12.742Z,100282.13
2022-11-03T00:38:01.177Z,100288.00
2022-11-03T00:41:03.081Z,100274.16
2022-11-03T00:43:56.552Z,100272.91
2022-11-03T00:46:47.125Z,100263.91
2022-11-03T00:49:44.026Z,100268.41
2022-11-03T00:52:35.259Z,100259.34
2022-11-03T00:55:23.457Z,100253.19
2022-11-03T00:58:14.544Z,100268.72
2022-11-03T01:01:08.514Z,100255.06
2022-11-03T01:04:17.371Z,100265.00
2022-11-03T01:07:06.826Z,100253.41
2022-11-03T01:09:55.284Z,100246.13
2022-11-03T01:12:46.005Z,100245.34
2022-11-03T01:15:37.406Z,100244.84
2022-11-03T01:18:28.714Z,100228.91
2022-11-03T01:21:23.950Z,100241.91
2022-11-03T01:24:14.812Z,100238.50
2022-11-03T01:27:08.560Z,100230.56
2022-11-03T01:30:00.071Z,100244.00
2022-11-03T01:33:00.480Z,100233.72
2022-11-03T01:35:56.746Z,100235.34
2022-11-03T01:38:47.736Z,100230.09
2022-11-03T01:41:35.918Z,100224.34
2022-11-03T01:44:28.613Z,100225.31
2022-11-03T01:47:32.816Z,100227.66
2022-11-03T01:50:23.456Z,100216.84
2022-11-03T01:53:25.330Z,100200.97
2022-11-03T01:56:18.162Z,100206.03
2022-11-03T01:59:10.855Z,100203.03
2022-11-03T02:01:59.305Z,100193.25
2022-11-03T02:04:50.720Z,100199.16
2022-11-03T02:08:03.308Z,100187.88
2022-11-03T02:10:52.755Z,100176.41
2022-11-03T02:13:43.566Z,100196.91
2022-11-03T02:16:33.489Z,100179.00
2022-11-03T02:19:55.991Z,100178.06
2022-11-03T02:23:10.227Z,100182.63
2022-11-03T02:26:00.220Z,100163.19
2022-11-03T02:28:49.311Z,100155.41
2022-11-03T02:31:47.679Z,100148.63
2022-11-03T02:35:15.789Z,100158.63
2022-11-03T02:38:10.611Z,100143.63
2022-11-03T02:41:06.151Z,100150.72
2022-11-03T02:43:59.565Z,100151.41
2022-11-03T02:47:03.332Z,100131.78
2022-11-03T02:49:58.840Z,100137.13
2022-11-03T02:52:55.800Z,100146.44
2022-11-03T02:56:11.457Z,100140.47
2022-11-03T02:59:10.077Z,100129.59
2022-11-03T03:02:14.059Z,100124.72
2022-11-03T03:05:12.072Z,100134.91
2022-11-03T03:08:09.403Z,100133.41
2022-11-03T03:11:05.383Z,100120.81
2022-11-03T03:14:00.109Z,100121.44
2022-11-03T03:17:28.197Z,100098.91
2022-11-03T03:20:43.506Z,100089.44
2022-11-03T03:23:48.305Z,100082.19
2022-11-03T03:26:43.030Z,100078.13
2022-11-03T03:29:48.439Z,100087.75
2022-11-03T03:32:49.819Z,100084.44
2022-11-03T03:35:43.654Z,100084.00
2022-11-03T03:38:41.933Z,100083.78
2022-11-03T03:41:32.877Z,100084.03
2022-11-03T03:44:23.680Z,100074.94
2022-11-03T03:47:32.652Z,100067.28
2022-11-03T03:50:23.301Z,100070.00
2022-11-03T03:53:30.715Z,100087.09
2022-11-03T03:56:26.596Z,100070.09
2022-11-03T03:59:15.005Z,100068.97
2022-11-03T04:02:18.708Z,100071.56
2022-11-03T04:05:17.751Z,100068.91
2022-11-03T04:08:07.924Z,100055.81
2022-11-03T04:11:17.272Z,100059.16
2022-11-03T04:14:31.127Z,100058.91
2022-11-03T04:17:41.485Z,100046.44
2022-11-03T04:20:51.650Z,100043.88
2022-11-03T04:23:39.867Z,100049.13
2022-11-03T04:26:29.412Z,100044.97
2022-11-03T04:29:22.794Z,100051.25
2022-11-03T04:32:18.305Z,100041.75
2022-11-03T04:35:39.294Z,100035.91
2022-11-03T04:38:29.818Z,100033.19
2022-11-03T04:41:27.128Z,100041.88
2022-11-03T04:44:19.194Z,100035.59
2022-11-03T04:47:13.813Z,100035.22
2022-11-03T04:50:02.420Z,100035.22
2022-11-03T04:52:58.926Z,100026.78
2022-11-03T04:55:50.643Z,100020.66
2022-11-03T04:58:42.132Z,100011.13
2022-11-03T05:01:35.321Z,100015.56
2022-11-03T05:04:30.446Z,100013.88
2022-11-03T05:07:36.265Z,100006.97
2022-11-03T05:10:29.940Z,100015.38
2022-11-03T05:13:25.919Z,100018.75
2022-11-03T05:16:14.905Z,99996.31
2022-11-03T05:19:03.472Z,99992.91
2022-11-03T05:21:53.438Z,99995.69
2022-11-03T05:24:42.790Z,99980.41
2022-11-03T05:27:31.137Z,99985.84
2022-11-03T05:30:19.717Z,99977.13
2022-11-03T05:33:31.248Z,99975.09
2022-11-03T05:36:25.553Z,99969.09
2022-11-03T05:39:35.905Z,99962.06
2022-11-03T05:42:24.000Z,99968.94
2022-11-03T05:45:33.511Z,99955.34
2022-11-03T05:48:45.051Z,99946.69
2022-11-03T05:51:37.201Z,99951.47
2022-11-03T05:54:32.989Z,99948.94
2022-11-03T05:57:21.195Z,99952.78
2022-11-03T06:00:48.052Z,99945.63
2022-11-03T06:03:43.291Z,99921.47
2022-11-03T06:06:44.846Z,99932.84
2022-11-03T06:09:36.997Z,99931.41
2022-11-03T06:12:29.519Z,99923.34
2022-11-03T06:15:47.878Z,99904.84
2022-11-03T06:18:40.733Z,99923.56
2022-11-03T06:21:29.486Z,99915.59
2022-11-03T06:24:32.658Z,99906.66
2022-11-03T06:27:26.819Z,99923.66
2022-11-03T06:30:26.757Z,99923.84
2022-11-03T06:33:40.039Z,99926.06
2022-11-03T06:41:13.882Z,99907.66
2022-11-03T06:45:00.207Z,99911.72
2022-11-03T06:48:18.080Z,99916.84
2022-11-03T06:51:27.983Z,99922.19
2022-11-03T07:02:44.405Z,99904.47
2022-11-03T07:21:54.920Z,99885.09
2022-11-03T07:24:47.060Z,99876.13
2022-11-03T07:28:09.861Z,99879.13
2022-11-03T07:39:44.054Z,99835.53
2022-11-03T07:43:17.286Z,99833.97
2022-11-03T07:46:18.729Z,99836.66
2022-11-03T07:49:32.635Z,99824.34
2022-11-03T07:52:53.799Z,99837.22
2022-11-03T07:56:02.035Z,99813.94
2022-11-03T08:00:10.895Z,99820.47
2022-11-03T08:04:32.684Z,99810.06
2022-11-03T08:07:38.527Z,99804.53
2022-11-03T08:11:01.968Z,99796.53
2022-11-03T08:14:03.633Z,99793.91
2022-11-03T08:21:05.429Z,99793.41
2022-11-03T08:24:17.328Z,99776.59
2022-11-03T08:31:51.892Z,99769.88
2022-11-03T09:13:47.560Z,99746.38
2022-11-03T09:23:37.555Z,99742.53
2022-11-03T09:25:24.930Z,99741.75
2022-11-03T09:37:48.540Z,99693.88
2022-11-03T09:44:36.121Z,99695.09
2022-11-03T10:59:19.363Z,99544.28
2022-11-03T11:03:25.560Z,99529.81
2022-11-03T11:07:43.142Z,99515.22
2022-11-03T11:20:38.448Z,99490.38
2022-11-03T11:29:18.369Z,99461.34
2022-11-03T11:33:43.891Z,99442.03
2022-11-03T11:36:43.859Z,99430.38
2022-11-03T11:40:33.659Z,99439.81
2022-11-03T11:47:36.710Z,99423.31
2022-11-03T11:50:49.847Z,99406.94
2022-11-03T11:57:35.492Z,99405.94
2022-11-03T12:05:28.481Z,99414.44
2022-11-03T12:17:50.950Z,99396.28
2022-11-03T12:25:40.853Z,99393.72
2022-11-03T12:32:40.299Z,99361.19
2022-11-03T12:42:02.459Z,99314.91
2022-11-03T12:48:59.621Z,99306.22
2022-11-03T12:55:56.928Z,99295.34
2022-11-03T13:03:04.625Z,99267.31
2022-11-03T13:09:51.240Z,99276.06
2022-11-03T13:20:04.035Z,99242.44
2022-11-03T13:22:59.384Z,99235.91
2022-11-03T13:26:10.413Z,99232.34
2022-11-03T13:29:41.244Z,99235.22
2022-11-03T13:33:22.055Z,99221.34
2022-11-03T13:36:30.753Z,99216.94
2022-11-03T13:39:26.665Z,99206.09
2022-11-03T13:42:17.710Z,99198.66
2022-11-03T14:00:25.504Z,99176.63
2022-11-03T14:07:09.116Z,99169.59
2022-11-03T14:17:56.946Z,99151.22
2022-11-03T14:21:18.479Z,99131.09
2022-11-03T14:24:40.579Z,99105.34
2022-11-03T14:27:35.626Z,99111.31
2022-11-03T14:30:37.679Z,99115.19
2022-11-03T14:37:05.151Z,99102.31
2022-11-03T14:44:13.753Z,99059.38
2022-11-03T14:47:36.293Z,99045.56
2022-11-03T15:03:19.160Z,99063.81
2022-11-03T15:06:15.629Z,99050.31
2022-11-03T15:09:34.716Z,99056.34
2022-11-03T15:12:28.286Z,99045.97
2022-11-03T15:16:49.356Z,99029.28
2022-11-03T15:26:47.696Z,99032.06
2022-11-03T15:34:50.857Z,99015.19
2022-11-03T15:38:01.813Z,99003.56
2022-11-03T15:45:11.671Z,98992.38
2022-11-03T15:49:18.103Z,98971.31
2022-11-03T15:52:57.460Z,98975.47
2022-11-03T15:56:28.654Z,98967.34
2022-11-03T15:59:19.466Z,98960.66
2022-11-03T16:02:56.975Z,98968.84
2022-11-03T16:35:41.515Z,98912.88
2022-11-03T16:38:29.649Z,98911.50
2022-11-03T16:41:17.976Z,98902.59
2022-11-03T16:44:06.220Z,98888.72
2022-11-03T16:47:00.032Z,98893.03
2022-11-03T16:49:48.043Z,98886.00
2022-11-03T16:52:36.698Z,98886.69
2022-11-03T16:55:24.851Z,98894.63
2022-11-03T16:58:13.081Z,98885.78
2022-11-03T17:01:01.281Z,98883.41
2022-11-03T17:03:51.925Z,98890.31
2022-11-03T17:06:39.933Z,98885.16
2022-11-03T17:09:28.528Z,98886.91
2022-11-03T17:12:20.280Z,98873.97
2022-11-03T17:18:36.536Z,98856.22
2022-11-03T17:21:28.689Z,98861.09
2022-11-03T17:24:20.828Z,98859.03
2022-11-03T17:27:28.162Z,98862.31
2022-11-03T17:30:29.382Z,98849.00
2022-11-03T17:33:20.111Z,98843.94
2022-11-03T17:36:14.838Z,98817.81
2022-11-03T17:39:09.763Z,98816.22
2022-11-03T17:42:15.688Z,98806.56
2022-11-03T17:45:10.446Z,98788.44
2022-11-03T17:48:04.037Z,98774.88
2022-11-03T17:50:55.824Z,98768.88
2022-11-03T17:53:53.143Z,98784.56
2022-11-03T17:56:49.879Z,98786.00
2022-11-03T17:59:40.807Z,98778.31
2022-11-03T18:02:40.704Z,98799.69
2022-11-03T18:05:33.800Z,98768.13
2022-11-03T18:08:24.545Z,98766.63
2022-11-03T18:11:36.521Z,98767.66
2022-11-03T18:14:49.472Z,98762.84
2022-11-03T18:17:40.337Z,98741.59
2022-11-03T18:20:52.842Z,98744.84
2022-11-03T18:23:41.819Z,98741.59
2022-11-03T18:26:33.334Z,98746.03
2022-11-03T18:29:22.094Z,98744.66
2022-11-03T18:32:19.688Z,98716.63
2022-11-03T18:35:16.588Z,98729.66
2022-11-03T18:38:11.708Z,98713.63
2022-11-03T18:41:02.828Z,98702.75
2022-11-03T18:43:54.231Z,98692.69
2022-11-03T18:46:44.991Z,98691.44
2022-11-03T18:49:44.155Z,98686.78
2022-11-03T18:52:40.732Z,98687.50
2022-11-03T18:55:38.674Z,98694.56
2022-11-03T18:58:36.767Z,98708.69
2022-11-03T19:01:28.690Z,98716.06
2022-11-03T19:04:28.201Z,98740.22
2022-11-03T19:17:22.476Z,98743.56
2022-11-03T19:20:12.568Z,98783.56
2022-11-03T19:23:00.871Z,98734.56
2022-11-03T19:25:50.131Z,98758.69
2022-11-03T19:28:40.451Z,98756.75
2022-11-03T19:31:57.536Z,98758.13
2022-11-03T19:35:15.872Z,98727.56
2022-11-03T19:38:21.203Z,98713.28
2022-11-03T19:41:38.250Z,98704.78
2022-11-03T19:44:31.866Z,98699.22
2022-11-03T19:47:25.005Z,98694.25
2022-11-03T19:50:29.803Z,98682.13
2022-11-03T19:53:28.078Z,98681.28
2022-11-03T19:56:17.295Z,98666.50
2022-11-03T19:59:18.689Z,98673.66
2022-11-03T20:02:16.185Z,98672.88
2022-11-03T20:05:10.544Z,98668.50
2022-11-03T20:08:06.633Z,98668.94
2022-11-03T20:10:55.220Z,98671.00
2022-11-03T20:13:45.828Z,98661.31
2022-11-03T20:16:34.194Z,98660.34
2022-11-03T20:19:28.607Z,98645.16
2022-11-03T20:22:28.717Z,98658.44
2022-11-03T20:25:31.786Z,98648.38
2022-11-03T20:28:28.725Z,98638.84
2022-11-03T20:31:21.604Z,98653.75
2022-11-03T20:34:16.475Z,98648.88
2022-11-03T20:37:19.470Z,98631.06
2022-11-03T20:40:19.877Z,98643.81
2022-11-03T20:43:26.769Z,98646.41
2022-11-03T20:46:33.887Z,98634.31
2022-11-03T20:49:22.327Z,98629.94
2022-11-03T20:52:17.087Z,98610.72
2022-11-03T20:55:25.320Z,98616.44
2022-11-03T20:58:18.626Z,98588.19
2022-11-03T21:01:21.183Z,98606.22
2022-11-03T21:04:21.807Z,98597.44
2022-11-03T21:07:15.307Z,98604.78
2022-11-03T21:10:05.953Z,98601.03
2022-11-03T21:12:54.336Z,98606.78
2022-11-03T21:16:23.648Z,98598.69
2022-11-03T21:19:38.767Z,98603.56
2022-11-03T21:22:52.357Z,98604.59
2022-11-03T21:25:40.984Z,98586.78
2022-11-03T21:28:29.023Z,98592.88
2022-11-03T21:31:17.034Z,98603.84
2022-11-03T21:34:07.957Z,98609.03
2022-11-03T21:36:57.574Z,98601.06
2022-11-03T21:39:45.712Z,98598.03
2022-11-03T21:42:57.798Z,98601.44
2022-11-03T21:45:51.060Z,98605.09
2022-11-03T21:48:58.183Z,98605.09
2022-11-03T21:51:46.285Z,98604.19
2022-11-03T21:54:34.445Z,98613.50
2022-11-03T21:57:22.773Z,98606.31
2022-11-03T22:00:12.286Z,98617.22
2022-11-03T22:03:01.821Z,98601.19
2022-11-03T22:05:53.114Z,98603.19
2022-11-03T22:08:44.462Z,98605.66
2022-11-03T22:11:33.096Z,98609.19
2022-11-03T22:14:26.886Z,98611.94
2022-11-03T22:17:17.363Z,98618.63
2022-11-03T22:20:30.484Z,98624.84
2022-11-03T22:23:36.897Z,98616.81
2022-11-03T22:27:06.710Z,98635.91
2022-11-03T22:30:13.360Z,98632.66
2022-11-03T22:33:06.844Z,98645.53
2022-11-03T22:36:23.172Z,98648.81
2022-11-03T22:39:30.563Z,98629.63
2022-11-03T22:45:52.182Z,98620.06
2022-11-03T22:48:40.787Z,98635.31
2022-11-03T22:51:35.225Z,98649.66
2022-11-03T22:54:23.891Z,98646.50
2022-11-03T22:57:13.556Z,98658.63
2022-11-03T23:00:06.339Z,98661.09
2022-11-03T23:06:31.135Z,98641.19
2022-11-03T23:12:24.207Z,98677.56
2022-11-03T23:15:35.911Z,98671.84
2022-11-03T23:19:07.578Z,98670.97
2022-11-03T23:22:04.110Z,98679.59
2022-11-03T23:25:34.672Z,98696.00
2022-11-03T23:29:02.121Z,98673.28
2022-11-03T23:36:08.303Z,98700.38
2022-11-03T23:41:59.986Z,98695.25
2022-11-03T23:45:45.076Z,98698.88
2022-11-03T23:52:44.760Z,98715.88
2022-11-03T23:59:19.769Z,98714.91
